Været på Ålesund Lufhavn, Vigra (ENAL)

 

Time for time, neste 48 timer:

Detaljert varsel fra yr.no - 48 timer

Vindprognose for Breisundet:

Vindvarsel

Upper Winds 3000 fot akkurat nå:

ENAL akkurat nå:

  • METAR: 250120Z AUTO 16005KT 9999 OVC080/// 00/M03 Q1036
  • TAF: TAF 241700Z 2418/2423 15007KT 9999 FEW030 BKN060